sensor_id;sensor_type;location;lat;lon;timestamp;pressure;altitude;pressure_sealevel;temperature;humidity
79374;BME280;68844;53.128;17.958;2023-05-10T00:00:17;101440.75;;;9.17;46.14
79374;BME280;68844;53.128;17.958;2023-05-10T00:03:04;101441.37;;;9.19;46.22
79374;BME280;68844;53.128;17.958;2023-05-10T00:05:31;101441.23;;;9.22;46.04
79374;BME280;68844;53.128;17.958;2023-05-10T00:07:58;101444.27;;;9.17;46.14
79374;BME280;68844;53.128;17.958;2023-05-10T00:10:25;101441.23;;;9.09;46.19
79374;BME280;68844;53.128;17.958;2023-05-10T00:12:52;101443.02;;;9.04;46.49
79374;BME280;68844;53.128;17.958;2023-05-10T00:15:18;101440.57;;;9.00;46.19
79374;BME280;68844;53.128;17.958;2023-05-10T00:17:45;101441.73;;;8.97;46.24
79374;BME280;68844;53.128;17.958;2023-05-10T00:20:12;101437.59;;;8.91;46.71
79374;BME280;68844;53.128;17.958;2023-05-10T00:22:38;101433.93;;;8.86;46.35
79374;BME280;68844;53.128;17.958;2023-05-10T00:25:05;101430.89;;;8.82;46.80
79374;BME280;68844;53.128;17.958;2023-05-10T00:27:32;101430.67;;;8.83;46.81
79374;BME280;68844;53.128;17.958;2023-05-10T00:29:59;101426.21;;;8.80;46.83
79374;BME280;68844;53.128;17.958;2023-05-10T00:32:26;101422.94;;;8.79;46.85
79374;BME280;68844;53.128;17.958;2023-05-10T00:34:52;101425.63;;;8.78;47.25
79374;BME280;68844;53.128;17.958;2023-05-10T00:37:19;101422.85;;;8.77;47.17
79374;BME280;68844;53.128;17.958;2023-05-10T00:39:46;101416.19;;;8.76;47.22
79374;BME280;68844;53.128;17.958;2023-05-10T00:42:12;101419.23;;;8.75;47.18
79374;BME280;68844;53.128;17.958;2023-05-10T00:44:39;101415.86;;;8.71;47.34
79374;BME280;68844;53.128;17.958;2023-05-10T00:47:06;101412.63;;;8.64;47.13
79374;BME280;68844;53.128;17.958;2023-05-10T00:49:34;101407.67;;;8.61;47.17
79374;BME280;68844;53.128;17.958;2023-05-10T00:52:01;101411.95;;;8.59;47.45
79374;BME280;68844;53.128;17.958;2023-05-10T00:54:29;101409.79;;;8.52;47.24
79374;BME280;68844;53.128;17.958;2023-05-10T00:56:56;101405.95;;;8.46;47.92
79374;BME280;68844;53.128;17.958;2023-05-10T00:59:23;101410.34;;;8.41;48.24
79374;BME280;68844;53.128;17.958;2023-05-10T01:01:50;101406.09;;;8.38;48.05
79374;BME280;68844;53.128;17.958;2023-05-10T01:04:18;101409.48;;;8.31;47.44
79374;BME280;68844;53.128;17.958;2023-05-10T01:06:46;101407.33;;;8.23;48.08
79374;BME280;68844;53.128;17.958;2023-05-10T01:09:13;101406.31;;;8.17;48.45
79374;BME280;68844;53.128;17.958;2023-05-10T01:11:39;101403.65;;;8.08;48.22
79374;BME280;68844;53.128;17.958;2023-05-10T01:14:07;101405.36;;;7.99;48.59
79374;BME280;68844;53.128;17.958;2023-05-10T01:16:37;101399.70;;;7.91;49.26
79374;BME280;68844;53.128;17.958;2023-05-10T01:19:11;101400.29;;;7.84;49.80
79374;BME280;68844;53.128;17.958;2023-05-10T01:21:49;101400.06;;;7.76;49.15
79374;BME280;68844;53.128;17.958;2023-05-10T01:24:33;101399.33;;;7.67;49.25
79374;BME280;68844;53.128;17.958;2023-05-10T01:33:06;101393.84;;;7.38;49.94
79374;BME280;68844;53.128;17.958;2023-05-10T01:35:45;101388.42;;;7.27;50.77
79374;BME280;68844;53.128;17.958;2023-05-10T01:38:38;101385.42;;;7.16;50.06
79374;BME280;68844;53.128;17.958;2023-05-10T01:46:28;101384.64;;;6.98;52.26
79374;BME280;68844;53.128;17.958;2023-05-10T01:49:00;101379.13;;;6.90;51.60
79374;BME280;68844;53.128;17.958;2023-05-10T01:51:39;101377.23;;;6.83;52.05
79374;BME280;68844;53.128;17.958;2023-05-10T01:54:09;101380.11;;;6.75;52.09
79374;BME280;68844;53.128;17.958;2023-05-10T01:56:39;101381.28;;;6.72;53.38
79374;BME280;68844;53.128;17.958;2023-05-10T01:59:12;101380.52;;;6.68;52.81
79374;BME280;68844;53.128;17.958;2023-05-10T02:01:40;101377.77;;;6.66;53.16
79374;BME280;68844;53.128;17.958;2023-05-10T02:04:08;101373.27;;;6.64;52.75
79374;BME280;68844;53.128;17.958;2023-05-10T02:06:38;101372.55;;;6.59;52.77
79374;BME280;68844;53.128;17.958;2023-05-10T02:09:06;101368.79;;;6.56;52.33
79374;BME280;68844;53.128;17.958;2023-05-10T02:11:33;101367.35;;;6.52;52.80
79374;BME280;68844;53.128;17.958;2023-05-10T02:14:02;101364.98;;;6.50;53.34
79374;BME280;68844;53.128;17.958;2023-05-10T02:16:30;101360.73;;;6.45;53.17
79374;BME280;68844;53.128;17.958;2023-05-10T02:18:59;101362.29;;;6.40;53.03
79374;BME280;68844;53.128;17.958;2023-05-10T02:21:29;101358.64;;;6.39;53.76
79374;BME280;68844;53.128;17.958;2023-05-10T02:23:57;101355.13;;;6.34;53.95
79374;BME280;68844;53.128;17.958;2023-05-10T02:26:26;101354.13;;;6.26;53.73
79374;BME280;68844;53.128;17.958;2023-05-10T02:28:54;101348.88;;;6.21;53.40
79374;BME280;68844;53.128;17.958;2023-05-10T02:31:23;101352.36;;;6.15;53.69
79374;BME280;68844;53.128;17.958;2023-05-10T02:33:51;101355.29;;;6.11;54.33
79374;BME280;68844;53.128;17.958;2023-05-10T02:36:20;101354.91;;;6.06;54.05
79374;BME280;68844;53.128;17.958;2023-05-10T02:38:48;101354.16;;;6.01;54.09
79374;BME280;68844;53.128;17.958;2023-05-10T02:41:18;101356.29;;;5.94;53.86
79374;BME280;68844;53.128;17.958;2023-05-10T02:43:47;101357.65;;;5.89;54.25
79374;BME280;68844;53.128;17.958;2023-05-10T02:46:15;101353.33;;;5.87;55.80
79374;BME280;68844;53.128;17.958;2023-05-10T02:48:42;101355.55;;;5.89;56.92
79374;BME280;68844;53.128;17.958;2023-05-10T02:51:09;101356.80;;;5.95;56.77
79374;BME280;68844;53.128;17.958;2023-05-10T02:53:40;101354.71;;;5.94;56.32
79374;BME280;68844;53.128;17.958;2023-05-10T02:56:18;101353.41;;;5.97;56.82
79374;BME280;68844;53.128;17.958;2023-05-10T02:58:49;101355.77;;;6.00;57.07
79374;BME280;68844;53.128;17.958;2023-05-10T03:01:15;101355.20;;;6.02;57.09
79374;BME280;68844;53.128;17.958;2023-05-10T03:03:42;101355.64;;;6.04;57.41
79374;BME280;68844;53.128;17.958;2023-05-10T03:06:09;101355.52;;;6.09;57.44
79374;BME280;68844;53.128;17.958;2023-05-10T03:08:36;101357.30;;;6.14;57.45
79374;BME280;68844;53.128;17.958;2023-05-10T03:16:41;101354.36;;;6.29;56.57
79374;BME280;68844;53.128;17.958;2023-05-10T03:22:10;101351.70;;;6.37;56.55
79374;BME280;68844;53.128;17.958;2023-05-10T03:24:39;101350.80;;;6.37;56.58
79374;BME280;68844;53.128;17.958;2023-05-10T03:27:08;101353.04;;;6.40;56.26
79374;BME280;68844;53.128;17.958;2023-05-10T03:29:36;101350.82;;;6.43;56.30
79374;BME280;68844;53.128;17.958;2023-05-10T03:32:03;101350.35;;;6.48;56.15
79374;BME280;68844;53.128;17.958;2023-05-10T03:34:31;101353.17;;;6.52;56.57
79374;BME280;68844;53.128;17.958;2023-05-10T03:36:58;101345.88;;;6.56;56.11
79374;BME280;68844;53.128;17.958;2023-05-10T03:39:25;101350.69;;;6.60;55.65
79374;BME280;68844;53.128;17.958;2023-05-10T03:41:54;101349.34;;;6.63;55.92
79374;BME280;68844;53.128;17.958;2023-05-10T03:44:21;101346.88;;;6.69;55.83
79374;BME280;68844;53.128;17.958;2023-05-10T03:46:48;101349.64;;;6.76;55.50
79374;BME280;68844;53.128;17.958;2023-05-10T03:49:15;101347.84;;;6.82;55.80
79374;BME280;68844;53.128;17.958;2023-05-10T03:51:42;101345.48;;;6.90;55.25
79374;BME280;68844;53.128;17.958;2023-05-10T03:54:09;101346.55;;;6.96;55.18
79374;BME280;68844;53.128;17.958;2023-05-10T03:56:35;101348.09;;;7.02;55.06
79374;BME280;68844;53.128;17.958;2023-05-10T03:59:02;101347.20;;;7.07;54.81
79374;BME280;68844;53.128;17.958;2023-05-10T04:01:34;101345.80;;;7.13;54.60
79374;BME280;68844;53.128;17.958;2023-05-10T04:04:01;101346.55;;;7.22;54.28
79374;BME280;68844;53.128;17.958;2023-05-10T04:06:28;101338.44;;;7.29;54.10
79374;BME280;68844;53.128;17.958;2023-05-10T04:08:55;101340.02;;;7.39;53.50
79374;BME280;68844;53.128;17.958;2023-05-10T04:11:22;101341.58;;;7.44;53.58
79374;BME280;68844;53.128;17.958;2023-05-10T04:13:49;101345.83;;;7.53;53.38
79374;BME280;68844;53.128;17.958;2023-05-10T04:16:15;101343.55;;;8.15;51.84
79374;BME280;68844;53.128;17.958;2023-05-10T04:18:42;101340.18;;;9.98;47.79
79374;BME280;68844;53.128;17.958;2023-05-10T04:21:12;101334.48;;;11.70;44.29
79374;BME280;68844;53.128;17.958;2023-05-10T04:23:42;101333.36;;;13.05;42.20
79374;BME280;68844;53.128;17.958;2023-05-10T04:26:09;101325.86;;;13.72;38.41
79374;BME280;68844;53.128;17.958;2023-05-10T04:28:36;101328.02;;;14.56;38.10
79374;BME280;68844;53.128;17.958;2023-05-10T04:31:03;101328.92;;;15.18;35.53
79374;BME280;68844;53.128;17.958;2023-05-10T04:33:31;101330.43;;;15.87;34.06
79374;BME280;68844;53.128;17.958;2023-05-10T04:35:58;101325.58;;;16.35;33.45
79374;BME280;68844;53.128;17.958;2023-05-10T04:38:25;101323.30;;;16.73;31.81
79374;BME280;68844;53.128;17.958;2023-05-10T04:40:53;101317.57;;;17.44;31.88
79374;BME280;68844;53.128;17.958;2023-05-10T04:43:20;101312.54;;;18.29;30.56
79374;BME280;68844;53.128;17.958;2023-05-10T04:45:47;101311.55;;;18.83;29.57
79374;BME280;68844;53.128;17.958;2023-05-10T04:48:13;101310.63;;;19.02;28.63
79374;BME280;68844;53.128;17.958;2023-05-10T04:50:40;101308.30;;;19.55;27.92
79374;BME280;68844;53.128;17.958;2023-05-10T04:53:07;101311.93;;;19.71;26.58
79374;BME280;68844;53.128;17.958;2023-05-10T04:55:34;101315.42;;;19.86;26.57
79374;BME280;68844;53.128;17.958;2023-05-10T04:58:00;101313.10;;;20.41;26.51
79374;BME280;68844;53.128;17.958;2023-05-10T05:00:27;101310.42;;;20.60;25.62
79374;BME280;68844;53.128;17.958;2023-05-10T05:02:54;101308.38;;;21.18;25.16
79374;BME280;68844;53.128;17.958;2023-05-10T05:05:21;101304.99;;;21.31;24.43
79374;BME280;68844;53.128;17.958;2023-05-10T05:07:48;101299.41;;;21.48;24.01
79374;BME280;68844;53.128;17.958;2023-05-10T05:10:15;101298.54;;;21.93;24.15
79374;BME280;68844;53.128;17.958;2023-05-10T05:12:41;101297.41;;;22.03;23.03
79374;BME280;68844;53.128;17.958;2023-05-10T05:15:08;101296.05;;;21.93;23.00
79374;BME280;68844;53.128;17.958;2023-05-10T05:17:36;101293.87;;;22.36;22.84
79374;BME280;68844;53.128;17.958;2023-05-10T05:20:03;101299.70;;;22.11;22.58
79374;BME280;68844;53.128;17.958;2023-05-10T05:22:31;101298.56;;;23.02;21.94
79374;BME280;68844;53.128;17.958;2023-05-10T05:24:58;101293.91;;;23.43;21.42
79374;BME280;68844;53.128;17.958;2023-05-10T05:27:25;101293.11;;;23.66;21.13
79374;BME280;68844;53.128;17.958;2023-05-10T05:29:55;101295.12;;;24.12;20.89
79374;BME280;68844;53.128;17.958;2023-05-10T05:32:23;101299.88;;;24.45;19.99
79374;BME280;68844;53.128;17.958;2023-05-10T05:34:50;101297.44;;;24.51;20.21
79374;BME280;68844;53.128;17.958;2023-05-10T05:37:19;101303.10;;;24.97;19.77
79374;BME280;68844;53.128;17.958;2023-05-10T05:39:47;101294.73;;;25.77;19.06
79374;BME280;68844;53.128;17.958;2023-05-10T05:42:14;101292.27;;;26.52;17.93
79374;BME280;68844;53.128;17.958;2023-05-10T05:44:43;101294.90;;;26.24;17.72
79374;BME280;68844;53.128;17.958;2023-05-10T05:47:10;101292.52;;;25.37;18.07
79374;BME280;68844;53.128;17.958;2023-05-10T05:49:37;101293.89;;;24.40;19.02
79374;BME280;68844;53.128;17.958;2023-05-10T05:52:04;101289.77;;;25.16;18.53
79374;BME280;68844;53.128;17.958;2023-05-10T05:54:31;101292.58;;;25.33;18.15
79374;BME280;68844;53.128;17.958;2023-05-10T05:56:58;101291.60;;;25.42;18.13
79374;BME280;68844;53.128;17.958;2023-05-10T05:59:26;101287.17;;;25.89;17.92
79374;BME280;68844;53.128;17.958;2023-05-10T06:01:52;101283.27;;;26.29;17.66
79374;BME280;68844;53.128;17.958;2023-05-10T06:04:19;101284.50;;;26.07;17.27
79374;BME280;68844;53.128;17.958;2023-05-10T06:06:46;101282.50;;;26.60;16.92
79374;BME280;68844;53.128;17.958;2023-05-10T06:09:13;101276.63;;;26.57;16.87
79374;BME280;68844;53.128;17.958;2023-05-10T06:11:40;101279.48;;;26.39;16.97
79374;BME280;68844;53.128;17.958;2023-05-10T06:14:07;101281.30;;;26.26;17.14
79374;BME280;68844;53.128;17.958;2023-05-10T06:16:34;101282.10;;;27.51;16.23
79374;BME280;68844;53.128;17.958;2023-05-10T06:19:02;101295.32;;;27.73;15.71
79374;BME280;68844;53.128;17.958;2023-05-10T06:21:29;101295.00;;;28.08;15.74
79374;BME280;68844;53.128;17.958;2023-05-10T06:23:56;101289.40;;;28.87;15.12
79374;BME280;68844;53.128;17.958;2023-05-10T06:26:23;101287.27;;;28.19;15.41
79374;BME280;68844;53.128;17.958;2023-05-10T06:28:50;101289.17;;;27.37;15.76
79374;BME280;68844;53.128;17.958;2023-05-10T06:31:16;101291.06;;;28.10;15.56
79374;BME280;68844;53.128;17.958;2023-05-10T06:33:44;101294.50;;;28.43;15.30
79374;BME280;68844;53.128;17.958;2023-05-10T06:36:11;101292.20;;;28.96;14.96
79374;BME280;68844;53.128;17.958;2023-05-10T06:38:37;101287.30;;;29.69;14.16
79374;BME280;68844;53.128;17.958;2023-05-10T06:41:04;101288.16;;;29.96;14.06
79374;BME280;68844;53.128;17.958;2023-05-10T06:43:31;101288.98;;;29.58;14.09
79374;BME280;68844;53.128;17.958;2023-05-10T06:45:58;101288.89;;;29.44;14.29
79374;BME280;68844;53.128;17.958;2023-05-10T06:48:25;101283.81;;;29.13;14.54
79374;BME280;68844;53.128;17.958;2023-05-10T06:50:52;101283.73;;;29.66;14.29
79374;BME280;68844;53.128;17.958;2023-05-10T06:53:19;101279.63;;;29.90;14.10
79374;BME280;68844;53.128;17.958;2023-05-10T06:55:46;101284.14;;;30.14;13.73
79374;BME280;68844;53.128;17.958;2023-05-10T06:58:12;101287.05;;;29.63;14.40
79374;BME280;68844;53.128;17.958;2023-05-10T07:00:39;101285.95;;;29.89;14.23
79374;BME280;68844;53.128;17.958;2023-05-10T07:03:07;101290.77;;;29.55;14.06
79374;BME280;68844;53.128;17.958;2023-05-10T07:05:33;101288.77;;;29.77;14.14
79374;BME280;68844;53.128;17.958;2023-05-10T07:08:00;101292.66;;;29.02;14.44
79374;BME280;68844;53.128;17.958;2023-05-10T07:10:27;101284.52;;;28.48;14.84
79374;BME280;68844;53.128;17.958;2023-05-10T07:12:54;101289.36;;;27.85;15.28
79374;BME280;68844;53.128;17.958;2023-05-10T07:15:21;101287.77;;;28.49;14.48
79374;BME280;68844;53.128;17.958;2023-05-10T07:17:48;101283.80;;;29.01;14.38
79374;BME280;68844;53.128;17.958;2023-05-10T07:24:20;101281.09;;;28.50;14.72
79374;BME280;68844;53.128;17.958;2023-05-10T07:26:47;101276.94;;;29.05;14.69
79374;BME280;68844;53.128;17.958;2023-05-10T07:29:14;101276.04;;;29.36;14.31
79374;BME280;68844;53.128;17.958;2023-05-10T07:31:41;101279.70;;;29.34;14.41
79374;BME280;68844;53.128;17.958;2023-05-10T07:34:09;101276.91;;;30.02;14.05
79374;BME280;68844;53.128;17.958;2023-05-10T07:36:36;101280.07;;;30.81;13.38
79374;BME280;68844;53.128;17.958;2023-05-10T07:39:03;101283.77;;;30.38;13.35
79374;BME280;68844;53.128;17.958;2023-05-10T07:41:30;101285.18;;;30.00;13.88
79374;BME280;68844;53.128;17.958;2023-05-10T07:43:58;101283.58;;;29.98;14.00
79374;BME280;68844;53.128;17.958;2023-05-10T07:46:25;101278.94;;;31.08;13.37
79374;BME280;68844;53.128;17.958;2023-05-10T07:48:51;101277.46;;;30.45;13.26
79374;BME280;68844;53.128;17.958;2023-05-10T07:51:19;101276.50;;;30.47;13.64
79374;BME280;68844;53.128;17.958;2023-05-10T07:53:45;101274.42;;;30.22;13.72
79374;BME280;68844;53.128;17.958;2023-05-10T07:56:28;101277.29;;;30.55;13.34
79374;BME280;68844;53.128;17.958;2023-05-10T07:58:59;101278.59;;;30.92;13.21
79374;BME280;68844;53.128;17.958;2023-05-10T08:01:30;101282.25;;;31.42;13.13
79374;BME280;68844;53.128;17.958;2023-05-10T08:03:58;101284.26;;;30.42;13.57
79374;BME280;68844;53.128;17.958;2023-05-10T08:06:25;101276.44;;;31.28;12.93
79374;BME280;68844;53.128;17.958;2023-05-10T08:08:56;101277.39;;;30.37;13.09
79374;BME280;68844;53.128;17.958;2023-05-10T08:11:23;101271.64;;;30.24;13.21
79374;BME280;68844;53.128;17.958;2023-05-10T08:13:51;101270.99;;;29.48;13.98
79374;BME280;68844;53.128;17.958;2023-05-10T08:16:18;101268.84;;;30.28;13.50
79374;BME280;68844;53.128;17.958;2023-05-10T08:18:46;101270.84;;;30.11;13.31
79374;BME280;68844;53.128;17.958;2023-05-10T08:21:13;101270.64;;;29.90;13.62
79374;BME280;68844;53.128;17.958;2023-05-10T08:23:41;101272.07;;;29.20;13.92
79374;BME280;68844;53.128;17.958;2023-05-10T08:26:07;101271.00;;;29.93;13.48
79374;BME280;68844;53.128;17.958;2023-05-10T08:28:34;101276.98;;;29.34;13.96
79374;BME280;68844;53.128;17.958;2023-05-10T08:31:01;101271.00;;;30.34;13.60
79374;BME280;68844;53.128;17.958;2023-05-10T08:33:28;101273.06;;;30.91;12.71
79374;BME280;68844;53.128;17.958;2023-05-10T08:35:55;101269.48;;;29.79;13.75
79374;BME280;68844;53.128;17.958;2023-05-10T08:38:22;101270.91;;;29.66;13.61
79374;BME280;68844;53.128;17.958;2023-05-10T08:40:49;101271.45;;;30.68;12.99
79374;BME280;68844;53.128;17.958;2023-05-10T08:43:22;101267.23;;;30.55;13.27
79374;BME280;68844;53.128;17.958;2023-05-10T08:45:54;101269.36;;;30.65;13.13
79374;BME280;68844;53.128;17.958;2023-05-10T08:48:23;101271.02;;;29.43;13.71
79374;BME280;68844;53.128;17.958;2023-05-10T08:50:52;101270.34;;;29.63;13.84
79374;BME280;68844;53.128;17.958;2023-05-10T08:53:24;101271.17;;;29.58;13.96
79374;BME280;68844;53.128;17.958;2023-05-10T08:55:52;101268.73;;;29.84;13.71
79374;BME280;68844;53.128;17.958;2023-05-10T08:58:19;101266.02;;;30.20;13.85
79374;BME280;68844;53.128;17.958;2023-05-10T09:00:48;101267.11;;;30.54;12.96
79374;BME280;68844;53.128;17.958;2023-05-10T09:03:17;101267.38;;;29.95;13.37
79374;BME280;68844;53.128;17.958;2023-05-10T09:05:44;101271.11;;;29.39;13.85
79374;BME280;68844;53.128;17.958;2023-05-10T09:08:12;101271.42;;;29.53;13.99
79374;BME280;68844;53.128;17.958;2023-05-10T09:10:41;101268.52;;;30.17;13.57
79374;BME280;68844;53.128;17.958;2023-05-10T09:13:10;101265.02;;;30.48;13.68
79374;BME280;68844;53.128;17.958;2023-05-10T09:15:40;101260.31;;;31.09;13.46
79374;BME280;68844;53.128;17.958;2023-05-10T09:18:07;101258.44;;;30.79;13.04
79374;BME280;68844;53.128;17.958;2023-05-10T09:20:34;101258.86;;;30.74;13.19
79374;BME280;68844;53.128;17.958;2023-05-10T09:23:01;101255.06;;;30.86;13.16
79374;BME280;68844;53.128;17.958;2023-05-10T09:29:53;101253.25;;;30.43;13.47
79374;BME280;68844;53.128;17.958;2023-05-10T09:32:22;101253.20;;;30.25;13.54
79374;BME280;68844;53.128;17.958;2023-05-10T09:34:49;101253.57;;;29.63;14.18
79374;BME280;68844;53.128;17.958;2023-05-10T09:37:16;101255.92;;;29.45;14.12
79374;BME280;68844;53.128;17.958;2023-05-10T09:39:43;101251.80;;;30.07;13.40
79374;BME280;68844;53.128;17.958;2023-05-10T09:42:12;101257.94;;;30.41;13.03
79374;BME280;68844;53.128;17.958;2023-05-10T09:44:41;101252.21;;;29.52;13.92
79374;BME280;68844;53.128;17.958;2023-05-10T09:47:17;101251.23;;;29.87;14.10
79374;BME280;68844;53.128;17.958;2023-05-10T09:49:52;101244.27;;;29.78;13.66
79374;BME280;68844;53.128;17.958;2023-05-10T09:52:26;101257.62;;;29.45;14.08
79374;BME280;68844;53.128;17.958;2023-05-10T09:54:54;101259.05;;;29.66;13.99
79374;BME280;68844;53.128;17.958;2023-05-10T09:57:24;101257.80;;;29.04;14.50
79374;BME280;68844;53.128;17.958;2023-05-10T09:59:54;101254.60;;;28.98;14.28
79374;BME280;68844;53.128;17.958;2023-05-10T10:02:28;101244.05;;;28.74;14.61
79374;BME280;68844;53.128;17.958;2023-05-10T10:04:57;101246.73;;;28.57;15.08
79374;BME280;68844;53.128;17.958;2023-05-10T10:07:27;101246.94;;;28.68;14.85
79374;BME280;68844;53.128;17.958;2023-05-10T10:09:55;101239.79;;;28.52;15.07
79374;BME280;68844;53.128;17.958;2023-05-10T10:12:25;101239.11;;;28.70;14.84
79374;BME280;68844;53.128;17.958;2023-05-10T10:14:55;101236.61;;;28.40;15.46
79374;BME280;68844;53.128;17.958;2023-05-10T10:17:27;101233.90;;;27.98;15.27
79374;BME280;68844;53.128;17.958;2023-05-10T10:19:58;101234.23;;;27.43;15.79
79374;BME280;68844;53.128;17.958;2023-05-10T10:22:27;101231.67;;;27.29;15.98
79374;BME280;68844;53.128;17.958;2023-05-10T10:24:55;101223.67;;;27.08;16.51
79374;BME280;68844;53.128;17.958;2023-05-10T10:28:16;101227.83;;;27.33;16.48
79374;BME280;68844;53.128;17.958;2023-05-10T10:30:50;101228.19;;;27.36;16.08
79374;BME280;68844;53.128;17.958;2023-05-10T10:33:56;101233.54;;;27.31;15.50
79374;BME280;68844;53.128;17.958;2023-05-10T10:36:29;101225.59;;;26.62;16.62
79374;BME280;68844;53.128;17.958;2023-05-10T10:46:15;101216.59;;;26.21;17.08
79374;BME280;68844;53.128;17.958;2023-05-10T10:48:50;101214.88;;;25.69;17.58
79374;BME280;68844;53.128;17.958;2023-05-10T10:51:38;101208.92;;;25.22;18.00
79374;BME280;68844;53.128;17.958;2023-05-10T10:54:09;101218.64;;;25.32;18.47
79374;BME280;68844;53.128;17.958;2023-05-10T10:56:36;101209.88;;;24.66;19.00
79374;BME280;68844;53.128;17.958;2023-05-10T10:59:03;101203.04;;;24.50;19.03
79374;BME280;68844;53.128;17.958;2023-05-10T11:01:33;101210.36;;;24.18;19.44
79374;BME280;68844;53.128;17.958;2023-05-10T11:06:35;101201.13;;;24.60;19.43
79374;BME280;68844;53.128;17.958;2023-05-10T11:09:07;101204.59;;;24.68;18.98
79374;BME280;68844;53.128;17.958;2023-05-10T11:11:35;101215.81;;;24.11;19.60
79374;BME280;68844;53.128;17.958;2023-05-10T11:14:06;101213.23;;;24.29;19.93
79374;BME280;68844;53.128;17.958;2023-05-10T11:16:43;101209.59;;;24.19;19.72
79374;BME280;68844;53.128;17.958;2023-05-10T11:19:12;101203.16;;;23.25;20.80
79374;BME280;68844;53.128;17.958;2023-05-10T11:24:15;101200.14;;;23.00;21.10
79374;BME280;68844;53.128;17.958;2023-05-10T11:26:42;101209.80;;;23.32;21.23
79374;BME280;68844;53.128;17.958;2023-05-10T11:29:09;101199.69;;;23.80;20.60
79374;BME280;68844;53.128;17.958;2023-05-10T11:31:42;101199.69;;;23.80;20.73
79374;BME280;68844;53.128;17.958;2023-05-10T11:34:11;101193.04;;;23.43;20.60
79374;BME280;68844;53.128;17.958;2023-05-10T11:36:37;101187.84;;;23.22;20.95
79374;BME280;68844;53.128;17.958;2023-05-10T11:39:05;101194.85;;;23.04;21.53
79374;BME280;68844;53.128;17.958;2023-05-10T11:41:32;101196.66;;;22.94;21.58
79374;BME280;68844;53.128;17.958;2023-05-10T11:43:59;101192.92;;;23.13;21.17
79374;BME280;68844;53.128;17.958;2023-05-10T11:46:27;101197.59;;;23.06;20.87
79374;BME280;68844;53.128;17.958;2023-05-10T11:48:57;101198.34;;;23.02;21.02
79374;BME280;68844;53.128;17.958;2023-05-10T11:51:25;101200.98;;;23.13;21.08
79374;BME280;68844;53.128;17.958;2023-05-10T11:53:56;101195.84;;;23.25;20.59
79374;BME280;68844;53.128;17.958;2023-05-10T11:56:23;101199.95;;;22.95;20.66
79374;BME280;68844;53.128;17.958;2023-05-10T11:58:57;101186.91;;;22.23;21.48
79374;BME280;68844;53.128;17.958;2023-05-10T12:01:28;101196.88;;;21.94;21.89
79374;BME280;68844;53.128;17.958;2023-05-10T12:03:56;101181.20;;;22.05;21.92
79374;BME280;68844;53.128;17.958;2023-05-10T12:06:27;101186.87;;;22.20;21.84
79374;BME280;68844;53.128;17.958;2023-05-10T12:08:55;101184.26;;;22.03;21.78
79374;BME280;68844;53.128;17.958;2023-05-10T12:11:25;101186.55;;;22.27;21.80
79374;BME280;68844;53.128;17.958;2023-05-10T12:13:52;101185.13;;;22.39;21.78
79374;BME280;68844;53.128;17.958;2023-05-10T12:16:24;101181.14;;;22.52;21.32
79374;BME280;68844;53.128;17.958;2023-05-10T12:18:59;101193.60;;;22.53;21.27
79374;BME280;68844;53.128;17.958;2023-05-10T12:21:28;101191.71;;;22.43;21.24
79374;BME280;68844;53.128;17.958;2023-05-10T12:24:02;101184.83;;;22.04;21.66
79374;BME280;68844;53.128;17.958;2023-05-10T12:26:29;101186.23;;;22.05;22.29
79374;BME280;68844;53.128;17.958;2023-05-10T12:29:15;101181.44;;;22.39;22.01
79374;BME280;68844;53.128;17.958;2023-05-10T12:31:56;101182.60;;;22.73;21.62
79374;BME280;68844;53.128;17.958;2023-05-10T12:34:30;101180.61;;;22.81;21.21
79374;BME280;68844;53.128;17.958;2023-05-10T12:36:57;101191.78;;;22.43;21.22
79374;BME280;68844;53.128;17.958;2023-05-10T12:39:24;101182.23;;;22.34;21.24
79374;BME280;68844;53.128;17.958;2023-05-10T12:41:52;101182.95;;;22.38;21.56
79374;BME280;68844;53.128;17.958;2023-05-10T12:44:18;101187.22;;;22.40;21.31
79374;BME280;68844;53.128;17.958;2023-05-10T12:46:45;101184.45;;;22.50;21.37
79374;BME280;68844;53.128;17.958;2023-05-10T12:49:12;101179.77;;;22.76;21.05
79374;BME280;68844;53.128;17.958;2023-05-10T12:51:39;101181.77;;;22.85;20.94
79374;BME280;68844;53.128;17.958;2023-05-10T12:54:05;101182.61;;;22.79;21.00
79374;BME280;68844;53.128;17.958;2023-05-10T12:56:32;101177.55;;;22.84;20.68
79374;BME280;68844;53.128;17.958;2023-05-10T12:58:59;101166.41;;;22.81;21.05
79374;BME280;68844;53.128;17.958;2023-05-10T13:01:25;101168.66;;;23.06;20.86
79374;BME280;68844;53.128;17.958;2023-05-10T13:03:52;101169.05;;;22.72;20.68
79374;BME280;68844;53.128;17.958;2023-05-10T13:06:19;101171.38;;;22.69;20.64
79374;BME280;68844;53.128;17.958;2023-05-10T13:08:46;101171.20;;;22.49;20.78
79374;BME280;68844;53.128;17.958;2023-05-10T13:11:12;101161.09;;;22.27;21.13
79374;BME280;68844;53.128;17.958;2023-05-10T13:13:42;101162.05;;;22.47;21.09
79374;BME280;68844;53.128;17.958;2023-05-10T13:16:09;101171.54;;;22.58;21.35
79374;BME280;68844;53.128;17.958;2023-05-10T13:18:36;101172.52;;;22.65;21.11
79374;BME280;68844;53.128;17.958;2023-05-10T13:21:03;101164.14;;;22.83;21.02
79374;BME280;68844;53.128;17.958;2023-05-10T13:23:31;101161.56;;;22.86;21.08
79374;BME280;68844;53.128;17.958;2023-05-10T13:25:58;101160.57;;;23.02;20.80
79374;BME280;68844;53.128;17.958;2023-05-10T13:28:25;101155.27;;;22.75;21.16
79374;BME280;68844;53.128;17.958;2023-05-10T13:30:52;101157.23;;;22.58;21.67